Time;durP1;ratioP1;P1;durP2;ratioP2;P2;SDS_P1;SDS_P2;PMS_P1;PMS_P2;Temp;Humidity;BMP_temperature;BMP_pressure;BME280_temperature;BME280_humidity;BME280_pressure;Samples;Min_cycle;Max_cycle;Signal;HPM_P1;HPM_P2
2021/11/01 00:02:19;;;;;;;36.70;29.50;;;7.10;99.90;;;;;;6325392;28;20936;-64
2021/11/01 00:05:24;;;;;;;36.70;30.30;;;7.10;99.90;;;;;;6325354;28;20465;-64
2021/11/01 00:08:28;;;;;;;39.23;30.67;;;7.10;99.90;;;;;;6325788;28;20472;-64
2021/11/01 00:11:31;;;;;;;38.47;34.23;;;7.00;99.90;;;;;;6324889;28;20818;-63
2021/11/01 00:14:36;;;;;;;38.30;32.00;;;7.10;99.90;;;;;;6325272;28;20809;-64
2021/11/01 00:17:40;;;;;;;38.77;29.67;;;7.00;99.90;;;;;;6325306;27;20445;-63
2021/11/01 00:20:43;;;;;;;37.17;28.90;;;7.00;99.90;;;;;;6325128;28;20928;-64
2021/11/01 00:23:46;;;;;;;41.17;28.77;;;7.00;99.90;;;;;;6325277;28;20448;-63
2021/11/01 00:26:54;;;;;;;31.60;27.03;;;7.00;99.90;;;;;;6324935;28;20409;-63
2021/11/01 00:29:58;;;;;;;35.67;29.63;;;6.90;99.90;;;;;;6325134;28;20444;-66
2021/11/01 00:33:06;;;;;;;38.50;29.10;;;6.90;99.90;;;;;;6324879;28;20452;-64
2021/11/01 00:36:10;;;;;;;35.40;27.00;;;6.90;99.90;;;;;;6319847;28;20561;-63
2021/11/01 00:39:13;;;;;;;35.43;28.80;;;6.90;99.90;;;;;;6324821;28;20472;-64
2021/11/01 00:42:16;;;;;;;38.60;28.47;;;6.90;99.90;;;;;;6324563;28;20486;-64
2021/11/01 00:45:21;;;;;;;36.23;30.83;;;6.80;99.90;;;;;;6324798;28;20471;-62
2021/11/01 00:48:24;;;;;;;35.27;28.33;;;6.80;99.90;;;;;;6324553;28;20468;-61
2021/11/01 00:51:27;;;;;;;37.10;29.27;;;6.70;99.90;;;;;;6324582;28;20951;-63
2021/11/01 00:54:30;;;;;;;36.00;30.13;;;6.70;99.90;;;;;;6324975;28;20467;-62
2021/11/01 00:57:34;;;;;;;41.07;31.70;;;6.70;99.90;;;;;;6324903;28;20476;-61
2021/11/01 01:00:38;;;;;;;37.10;30.37;;;6.70;99.90;;;;;;6324682;28;20483;-61
2021/11/01 01:03:43;;;;;;;36.90;29.23;;;6.60;99.90;;;;;;6324911;28;20472;-62
2021/11/01 01:06:47;;;;;;;33.83;29.20;;;6.60;99.90;;;;;;6324445;28;20525;-61
2021/11/01 01:09:51;;;;;;;38.80;28.10;;;6.60;99.90;;;;;;6324805;28;20468;-62
2021/11/01 01:12:55;;;;;;;39.30;31.23;;;6.60;99.90;;;;;;6324248;28;20468;-62
2021/11/01 01:16:05;;;;;;;44.77;31.97;;;6.50;99.90;;;;;;6299647;28;20473;-63
2021/11/01 01:19:15;;;;;;;40.67;31.43;;;6.50;99.90;;;;;;6299420;28;20477;-63
2021/11/01 01:22:31;;;;;;;35.90;29.87;;;6.50;99.90;;;;;;6310705;28;20478;-63
2021/11/01 01:25:44;;;;;;;37.80;29.80;;;6.50;99.90;;;;;;6324460;28;20457;-64
2021/11/01 01:28:49;;;;;;;39.50;31.40;;;6.50;99.90;;;;;;6322230;28;20479;-64
2021/11/01 01:31:54;;;;;;;37.10;30.60;;;6.40;99.90;;;;;;6322742;28;20983;-64
2021/11/01 01:34:57;;;;;;;42.37;31.17;;;6.50;99.90;;;;;;6322768;28;20522;-64
2021/11/01 01:38:00;;;;;;;36.00;30.70;;;6.50;99.90;;;;;;6324690;28;20468;-64
2021/11/01 01:41:12;;;;;;;39.70;33.40;;;6.50;99.90;;;;;;6322480;28;20491;-64
2021/11/01 01:44:16;;;;;;;43.70;32.80;;;6.50;99.90;;;;;;6327299;28;20555;-64
2021/11/01 01:47:21;;;;;;;38.20;30.63;;;6.40;99.90;;;;;;6327467;28;20785;-64
2021/11/01 01:50:24;;;;;;;39.70;30.97;;;6.40;99.90;;;;;;6327349;28;20609;-64
2021/11/01 01:53:28;;;;;;;42.73;32.13;;;6.40;99.90;;;;;;6327297;28;20963;-64
2021/11/01 01:56:32;;;;;;;38.63;30.30;;;6.20;99.90;;;;;;6327269;28;20483;-64
2021/11/01 01:59:35;;;;;;;38.90;29.33;;;6.20;99.90;;;;;;6328577;28;20476;-64
2021/11/01 02:02:41;;;;;;;41.03;32.27;;;6.10;99.90;;;;;;6328818;28;20452;-64
2021/11/01 02:06:06;;;;;;;34.33;28.43;;;6.10;99.90;;;;;;6329051;28;20417;-64
2021/11/01 02:09:12;;;;;;;43.30;32.10;;;6.20;99.90;;;;;;6328499;28;20481;-64
2021/11/01 02:12:19;;;;;;;37.00;28.57;;;6.10;99.90;;;;;;6328288;28;20473;-64
2021/11/01 02:15:26;;;;;;;37.83;30.17;;;6.10;99.90;;;;;;6328300;28;20479;-63
2021/11/01 02:18:33;;;;;;;38.47;29.70;;;6.10;99.90;;;;;;6328370;28;20472;-63
2021/11/01 02:21:47;;;;;;;36.00;30.00;;;6.10;99.90;;;;;;6328483;28;20472;-63
2021/11/01 02:24:58;;;;;;;38.70;30.53;;;6.10;99.90;;;;;;6328437;28;20468;-63
2021/11/01 02:28:03;;;;;;;42.87;31.13;;;6.10;99.90;;;;;;6327950;28;20986;-63
2021/11/01 02:31:11;;;;;;;37.57;31.07;;;6.10;99.90;;;;;;6327343;28;20472;-63
2021/11/01 02:34:14;;;;;;;42.07;33.40;;;6.10;99.90;;;;;;6328154;28;20821;-63
2021/11/01 02:37:18;;;;;;;38.80;31.50;;;6.10;99.90;;;;;;6327633;28;20503;-63
2021/11/01 02:40:27;;;;;;;38.20;31.87;;;6.10;99.90;;;;;;6327268;28;20821;-63
2021/11/01 02:43:31;;;;;;;38.37;30.67;;;6.10;99.90;;;;;;6327588;28;20488;-64
2021/11/01 02:46:35;;;;;;;38.43;29.30;;;6.10;99.90;;;;;;6317776;28;20940;-64
2021/11/01 02:49:39;;;;;;;39.50;31.53;;;6.00;99.90;;;;;;6325715;28;20483;-64
2021/11/01 02:52:43;;;;;;;38.83;31.00;;;6.10;99.90;;;;;;6326915;28;20851;-63
2021/11/01 02:55:46;;;;;;;40.37;31.90;;;6.00;99.90;;;;;;6327371;28;20533;-63
2021/11/01 02:58:51;;;;;;;42.83;32.70;;;6.00;99.90;;;;;;6327268;28;20472;-63
2021/11/01 03:01:54;;;;;;;40.57;30.73;;;6.00;99.90;;;;;;6326727;28;20994;-63
2021/11/01 03:04:58;;;;;;;42.53;34.13;;;6.00;99.90;;;;;;6327083;28;20468;-63
2021/11/01 03:08:04;;;;;;;42.97;33.30;;;6.00;99.90;;;;;;6327030;28;20526;-63
2021/11/01 03:11:09;;;;;;;46.10;34.50;;;6.10;99.90;;;;;;6326831;28;20476;-63
2021/11/01 03:14:27;;;;;;;41.00;32.80;;;6.10;99.90;;;;;;6326832;28;20469;-63
2021/11/01 03:17:39;;;;;;;45.23;34.00;;;6.10;99.90;;;;;;6326430;28;20495;-64
2021/11/01 03:20:45;;;;;;;40.87;30.60;;;6.10;99.90;;;;;;6326899;28;20939;-64
2021/11/01 03:23:51;;;;;;;46.20;35.27;;;6.10;99.90;;;;;;6327083;28;20451;-65
2021/11/01 03:26:55;;;;;;;45.37;33.73;;;6.00;99.90;;;;;;6327814;28;20732;-64
2021/11/01 03:29:59;;;;;;;39.97;30.97;;;6.00;99.90;;;;;;6326072;28;20460;-64
2021/11/01 03:33:04;;;;;;;45.37;32.70;;;6.00;99.90;;;;;;6327191;28;20472;-63
2021/11/01 03:36:09;;;;;;;40.77;31.70;;;5.90;99.90;;;;;;6326965;28;20464;-63
2021/11/01 03:39:14;;;;;;;39.37;32.03;;;5.90;99.90;;;;;;6327515;28;20529;-63
2021/11/01 03:42:17;;;;;;;41.13;31.90;;;5.90;99.90;;;;;;6326587;28;20471;-63
2021/11/01 03:45:24;;;;;;;41.90;31.50;;;5.80;99.90;;;;;;6326766;28;20464;-64
2021/11/01 03:48:30;;;;;;;38.03;30.13;;;5.80;99.90;;;;;;6326258;28;20475;-64
2021/11/01 03:51:43;;;;;;;42.50;32.87;;;5.80;99.90;;;;;;6326419;28;20467;-63
2021/11/01 03:54:47;;;;;;;42.37;31.43;;;5.70;99.90;;;;;;6326385;28;20460;-63
2021/11/01 03:57:50;;;;;;;43.40;32.23;;;5.70;99.90;;;;;;6326190;28;20524;-63
2021/11/01 04:00:55;;;;;;;43.97;31.73;;;5.80;99.90;;;;;;6325643;28;20480;-63
2021/11/01 04:03:59;;;;;;;39.23;31.13;;;5.70;99.90;;;;;;6326254;28;20479;-64
2021/11/01 04:07:03;;;;;;;40.03;32.50;;;5.70;99.90;;;;;;6326312;28;20476;-63
2021/11/01 04:10:09;;;;;;;38.83;31.97;;;5.70;99.90;;;;;;6325617;28;20967;-63
2021/11/01 04:13:12;;;;;;;39.37;31.60;;;5.70;99.90;;;;;;6325376;28;20472;-63
2021/11/01 04:16:21;;;;;;;41.67;33.50;;;5.80;99.90;;;;;;6325411;28;20479;-63
2021/11/01 04:23:00;;;;;;;39.60;31.57;;;5.80;99.90;;;;;;6273710;28;20473;-65
2021/11/01 04:26:04;;;;;;;38.00;30.70;;;5.80;99.90;;;;;;6325192;28;20475;-64
2021/11/01 04:29:08;;;;;;;42.40;33.10;;;5.90;99.90;;;;;;6324856;28;20852;-65
2021/11/01 04:32:20;;;;;;;40.07;31.93;;;5.90;99.90;;;;;;6325372;28;20507;-65
2021/11/01 04:35:26;;;;;;;41.50;32.50;;;5.80;99.90;;;;;;6325042;28;20952;-65
2021/11/01 04:38:40;;;;;;;43.73;34.00;;;5.90;99.90;;;;;;6324667;28;20959;-65
2021/11/01 04:42:00;;;;;;;43.23;33.57;;;5.80;99.90;;;;;;6324316;28;20553;-65
2021/11/01 04:55:08;;;;;;;41.37;31.70;;;5.70;99.90;;;;;;6312086;28;20491;-64
2021/11/01 04:58:12;;;;;;;39.50;33.07;;;5.60;99.90;;;;;;6326104;28;20476;-64
2021/11/01 05:01:18;;;;;;;48.73;35.23;;;5.50;99.90;;;;;;6325053;28;20521;-64
2021/11/01 05:04:25;;;;;;;39.63;32.30;;;5.50;99.90;;;;;;6324980;28;21003;-64
2021/11/01 05:07:29;;;;;;;41.10;32.60;;;5.50;99.90;;;;;;6324637;28;20975;-64
2021/11/01 05:10:35;;;;;;;43.87;34.03;;;5.50;99.90;;;;;;6324511;28;20476;-64
2021/11/01 05:13:39;;;;;;;42.60;33.17;;;5.50;99.90;;;;;;6328078;28;20483;-64
2021/11/01 05:16:52;;;;;;;43.67;32.60;;;5.50;99.90;;;;;;6330041;28;20605;-65
2021/11/01 05:20:03;;;;;;;38.73;29.73;;;5.50;99.90;;;;;;6329595;28;20480;-65
2021/11/01 05:23:13;;;;;;;36.20;29.80;;;5.50;99.90;;;;;;6329466;28;20963;-64
2021/11/01 05:26:21;;;;;;;32.23;26.77;;;5.50;99.90;;;;;;6329603;28;20467;-65
2021/11/01 05:29:24;;;;;;;38.10;31.00;;;5.50;99.90;;;;;;6329528;28;20472;-64
2021/11/01 05:32:29;;;;;;;34.40;27.37;;;5.40;99.90;;;;;;6329883;28;20963;-63
2021/11/01 05:35:34;;;;;;;40.97;29.73;;;5.40;99.90;;;;;;6329699;28;20525;-64
2021/11/01 05:38:37;;;;;;;36.77;30.30;;;5.40;99.90;;;;;;6328687;28;20476;-64
2021/11/01 05:41:40;;;;;;;45.30;34.77;;;5.40;99.90;;;;;;6328730;28;20548;-64
2021/11/01 05:44:43;;;;;;;42.90;32.33;;;5.40;99.90;;;;;;6329395;28;20448;-63
2021/11/01 05:47:52;;;;;;;44.00;34.37;;;5.40;99.90;;;;;;6329150;28;20451;-63
2021/11/01 05:50:57;;;;;;;39.47;32.77;;;5.40;99.90;;;;;;6329437;28;20526;-63
2021/11/01 05:54:03;;;;;;;38.10;30.67;;;5.40;99.90;;;;;;6328869;28;20723;-64
2021/11/01 05:57:13;;;;;;;38.03;30.47;;;5.40;99.90;;;;;;6319897;28;20483;-64
2021/11/01 06:00:35;;;;;;;36.77;29.80;;;5.50;99.90;;;;;;6328761;28;20483;-64
2021/11/01 06:03:40;;;;;;;39.87;31.57;;;5.50;99.90;;;;;;6328990;28;20553;-64
2021/11/01 06:07:01;;;;;;;37.27;31.00;;;5.50;99.90;;;;;;6328186;28;20464;-64
2021/11/01 06:10:09;;;;;;;35.20;28.83;;;5.60;99.90;;;;;;6328508;28;20476;-64
2021/11/01 06:13:27;;;;;;;39.27;30.70;;;5.60;99.90;;;;;;6327985;28;20480;-64
2021/11/01 06:16:30;;;;;;;33.23;29.27;;;5.60;99.90;;;;;;6328087;28;20960;-64
2021/11/01 06:19:34;;;;;;;34.63;29.07;;;5.60;99.90;;;;;;6327978;28;20483;-64
2021/11/01 06:22:38;;;;;;;40.50;31.83;;;5.60;99.90;;;;;;6328358;28;20479;-64
2021/11/01 06:25:41;;;;;;;39.27;30.23;;;5.70;99.90;;;;;;6327275;28;20476;-64
2021/11/01 06:28:45;;;;;;;46.20;33.70;;;5.80;99.90;;;;;;6326333;28;20483;-64
2021/11/01 06:31:59;;;;;;;42.47;32.60;;;5.70;99.90;;;;;;6326182;28;20468;-64
2021/11/01 06:45:31;;;;;;;41.53;31.87;;;5.90;99.90;;;;;;6327737;28;20525;-64
2021/11/01 06:58:44;;;;;;;36.77;32.23;;;6.10;99.90;;;;;;6326853;28;20496;-64
2021/11/01 07:15:30;;;;;;;45.77;33.50;;;6.50;99.90;;;;;;6326941;28;20469;-64
2021/11/01 07:18:38;;;;;;;39.13;32.97;;;6.60;99.90;;;;;;6326908;28;20526;-64
2021/11/01 07:21:56;;;;;;;33.73;30.03;;;6.80;99.90;;;;;;6326705;28;20479;-64
2021/11/01 07:38:49;;;;;;;34.57;29.17;;;7.50;99.90;;;;;;6326152;28;20483;-64
2021/11/01 08:22:35;;;;;;;26.80;21.70;;;9.10;99.90;;;;;;6325361;28;20465;-65
2021/11/01 08:25:59;;;;;;;26.07;23.43;;;9.20;99.90;;;;;;6325532;28;20468;-65
2021/11/01 08:39:21;;;;;;;31.10;27.70;;;9.70;99.90;;;;;;6324076;28;20472;-65
2021/11/01 08:49:40;;;;;;;29.30;25.90;;;10.40;99.90;;;;;;6319799;27;20530;-67
2021/11/01 09:06:25;;;;;;;26.40;23.00;;;16.40;93.90;;;;;;6295836;28;20466;-65
2021/11/01 09:26:29;;;;;;;23.17;21.03;;;20.30;76.90;;;;;;6266774;28;20469;-68
2021/11/01 09:29:48;;;;;;;24.63;22.53;;;25.30;56.70;;;;;;6294105;28;20237;-68
2021/11/01 09:36:18;;;;;;;27.27;24.93;;;30.80;37.10;;;;;;6320844;28;20291;-68
2021/11/01 09:39:44;;;;;;;26.67;24.55;;;32.90;33.10;;;;;;6320666;28;20245;-68
2021/11/01 09:42:48;;;;;;;25.38;23.38;;;34.60;30.00;;;;;;6320439;28;20575;-69
2021/11/01 09:45:55;;;;;;;25.33;23.52;;;36.60;27.80;;;;;;6320234;28;20229;-68
2021/11/01 09:49:13;;;;;;;27.27;25.35;;;37.50;26.00;;;;;;6319901;28;20287;-68
2021/11/01 09:52:18;;;;;;;25.60;23.90;;;37.60;25.20;;;;;;6320549;28;20253;-68
2021/11/01 09:55:40;;;;;;;25.60;23.77;;;38.10;25.00;;;;;;6313767;28;20692;-68
2021/11/01 10:02:05;;;;;;;25.88;23.88;;;39.10;23.50;;;;;;6302867;28;20231;-68
2021/11/01 10:05:09;;;;;;;25.83;23.92;;;39.40;23.20;;;;;;6303143;28;20534;-68
2021/11/01 10:08:18;;;;;;;25.95;24.00;;;40.30;22.70;;;;;;6303302;28;20232;-67
2021/11/01 10:11:23;;;;;;;26.67;24.88;;;40.90;22.20;;;;;;6296145;28;20293;-67
2021/11/01 10:14:27;;;;;;;23.38;21.88;;;40.70;22.00;;;;;;6287184;28;20226;-68
2021/11/01 10:17:35;;;;;;;25.70;24.00;;;41.60;21.50;;;;;;6280253;28;20244;-68
2021/11/01 10:20:42;;;;;;;24.67;22.92;;;42.40;21.10;;;;;;6277317;28;20236;-68
2021/11/01 10:23:50;;;;;;;22.17;20.73;;;42.70;20.50;;;;;;6277361;28;20225;-68
2021/11/01 10:26:56;;;;;;;25.25;23.48;;;43.00;20.30;;;;;;6276880;28;20207;-69
2021/11/01 10:30:02;;;;;;;24.60;22.90;;;43.40;20.00;;;;;;6296957;28;20235;-68
2021/11/01 10:33:07;;;;;;;23.23;21.80;;;43.70;19.80;;;;;;6301968;28;20670;-68
2021/11/01 10:36:11;;;;;;;23.10;21.60;;;43.40;19.60;;;;;;6302688;28;20241;-67
2021/11/01 10:39:22;;;;;;;23.48;21.92;;;43.00;19.70;;;;;;6302020;28;20318;-67
2021/11/01 10:42:29;;;;;;;22.08;20.67;;;43.60;19.80;;;;;;6301898;28;20242;-66
2021/11/01 10:45:49;;;;;;;20.08;18.65;;;42.10;19.70;;;;;;6294292;28;20238;-67
2021/11/01 11:12:56;;;;;;;14.02;13.07;;;43.90;17.90;;;;;;6287816;28;20298;-66
2021/11/01 11:16:01;;;;;;;13.20;12.35;;;40.70;19.90;;;;;;6296633;28;20226;-65
2021/11/01 11:19:13;;;;;;;13.98;13.05;;;39.50;20.30;;;;;;6298855;28;20238;-65
2021/11/01 11:26:06;;;;;;;14.85;13.75;;;37.20;22.30;;;;;;6295906;28;20234;-67
2021/11/01 11:29:36;;;;;;;13.60;12.60;;;38.90;21.40;;;;;;6301180;28;20235;-66
2021/11/01 11:32:49;;;;;;;13.00;12.00;;;39.90;20.40;;;;;;6301006;28;20224;-67
2021/11/01 11:49:27;;;;;;;11.18;10.38;;;42.30;17.80;;;;;;6299976;28;20259;-64
2021/11/01 11:52:36;;;;;;;11.98;11.18;;;39.80;19.30;;;;;;6300112;28;20702;-65
2021/11/01 11:55:40;;;;;;;11.93;11.02;;;38.30;20.60;;;;;;6299739;28;20276;-67
2021/11/01 11:58:49;;;;;;;9.85;9.05;;;39.00;20.80;;;;;;6299951;28;20248;-67
2021/11/01 12:01:54;;;;;;;10.55;9.73;;;40.50;19.90;;;;;;6300054;28;20559;-69
2021/11/01 12:05:06;;;;;;;10.90;10.10;;;40.10;19.50;;;;;;6300121;28;20230;-68
2021/11/01 12:08:15;;;;;;;13.15;12.25;;;36.90;21.00;;;;;;6299829;28;20663;-67
2021/11/01 12:11:39;;;;;;;11.63;10.73;;;34.20;23.50;;;;;;6299923;28;20631;-67
2021/11/01 12:18:06;;;;;;;12.27;11.20;;;29.20;28.60;;;;;;6299503;28;20535;-66
2021/11/01 12:21:11;;;;;;;11.60;10.67;;;27.40;31.10;;;;;;6275887;28;20562;-66
2021/11/01 12:24:21;;;;;;;10.90;10.00;;;26.20;33.40;;;;;;6274967;28;20242;-66
2021/11/01 12:27:25;;;;;;;10.27;9.47;;;25.10;35.40;;;;;;6274688;28;20694;-66
2021/11/01 12:30:36;;;;;;;11.20;10.30;;;24.60;37.80;;;;;;6275155;28;20234;-66
2021/11/01 12:33:47;;;;;;;13.40;12.20;;;26.20;35.60;;;;;;6274831;28;20559;-66
2021/11/01 12:36:57;;;;;;;11.03;10.03;;;26.00;35.40;;;;;;6274618;28;20231;-66
2021/11/01 12:40:05;;;;;;;11.57;10.57;;;25.20;37.10;;;;;;6274945;28;20235;-66
2021/11/01 12:43:22;;;;;;;9.70;8.80;;;26.00;36.80;;;;;;6274544;28;20227;-66
2021/11/01 12:57:03;;;;;;;9.75;9.05;;;40.10;23.00;;;;;;6296115;28;20284;-66
2021/11/01 13:00:07;;;;;;;9.85;8.95;;;41.40;21.40;;;;;;6292803;28;20235;-66
2021/11/01 13:03:17;;;;;;;8.95;8.35;;;40.20;21.20;;;;;;6271418;28;20230;-66
2021/11/01 13:06:33;;;;;;;10.15;9.38;;;37.10;23.30;;;;;;6271627;28;20222;-66
2021/11/01 13:09:41;;;;;;;10.02;9.23;;;34.90;24.90;;;;;;6270970;28;20231;-66
2021/11/01 13:19:34;;;;;;;10.10;9.30;;;29.10;30.50;;;;;;6265407;28;20223;-65
2021/11/01 13:22:44;;;;;;;9.80;9.07;;;27.20;33.80;;;;;;6251256;28;20242;-65
2021/11/01 13:25:59;;;;;;;10.73;9.83;;;25.90;36.10;;;;;;6269560;28;20552;-65
2021/11/01 13:29:22;;;;;;;10.10;9.20;;;24.60;38.70;;;;;;6275029;28;20250;-67
2021/11/01 13:36:25;;;;;;;9.00;8.20;;;22.80;42.40;;;;;;6249641;28;20235;-64
2021/11/01 13:39:29;;;;;;;9.20;8.30;;;22.00;44.00;;;;;;6272632;28;20684;-64
2021/11/01 13:42:35;;;;;;;9.87;8.97;;;21.60;45.20;;;;;;6273644;28;20242;-66
2021/11/01 13:45:40;;;;;;;9.10;7.90;;;21.30;46.00;;;;;;6274529;28;20240;-64
2021/11/01 13:49:04;;;;;;;8.87;8.10;;;21.20;46.50;;;;;;6274335;28;20239;-65
2021/11/01 13:52:14;;;;;;;8.80;8.10;;;21.00;47.00;;;;;;6274699;28;20596;-64
2021/11/01 13:55:32;;;;;;;10.03;9.13;;;20.70;47.70;;;;;;6271111;28;20247;-65
2021/11/01 13:58:38;;;;;;;9.73;8.83;;;20.50;48.40;;;;;;6272280;28;20672;-64
2021/11/01 14:01:55;;;;;;;8.73;8.00;;;20.30;48.90;;;;;;6271824;28;20224;-64
2021/11/01 14:11:54;;;;;;;9.90;8.90;;;19.60;52.10;;;;;;6253906;28;20660;-64
2021/11/01 14:15:04;;;;;;;9.40;8.53;;;19.20;54.70;;;;;;6253895;28;20641;-64
2021/11/01 14:18:34;;;;;;;8.40;7.50;;;19.00;55.80;;;;;;6253393;28;20289;-65
2021/11/01 14:28:30;;;;;;;18.77;16.83;;;18.80;58.40;;;;;;6233390;28;20262;-65
2021/11/01 14:59:34;;;;;;;11.80;10.60;;;17.90;70.40;;;;;;6276875;28;20236;-66
2021/11/01 15:09:50;;;;;;;19.33;17.43;;;17.40;73.50;;;;;;6276491;28;20474;-64
2021/11/01 15:16:28;;;;;;;13.57;12.27;;;17.20;75.00;;;;;;6275998;28;20474;-65
2021/11/01 15:19:50;;;;;;;14.13;12.73;;;17.10;75.60;;;;;;6270589;28;20983;-65
2021/11/01 15:26:48;;;;;;;13.43;12.13;;;16.80;78.70;;;;;;6226500;28;20479;-65
2021/11/01 15:33:47;;;;;;;12.83;11.70;;;16.60;80.80;;;;;;6226768;28;20483;-65
2021/11/01 16:17:21;;;;;;;14.87;13.57;;;15.70;90.60;;;;;;6250162;28;20479;-68
2021/11/01 16:20:24;;;;;;;15.03;12.10;;;15.70;90.80;;;;;;6237703;28;20480;-68
2021/11/01 16:23:37;;;;;;;14.23;12.87;;;15.60;91.00;;;;;;6225770;28;20893;-67
2021/11/01 16:26:42;;;;;;;15.30;13.80;;;15.60;91.10;;;;;;6225682;28;20484;-68
2021/11/01 16:29:51;;;;;;;15.43;14.03;;;15.60;91.30;;;;;;6226632;28;20471;-68
2021/11/01 16:33:00;;;;;;;14.37;12.87;;;15.60;91.40;;;;;;6228423;28;20435;-68
2021/11/01 16:36:08;;;;;;;14.97;13.63;;;15.60;91.50;;;;;;6228759;28;20861;-70
2021/11/01 16:39:12;;;;;;;15.43;13.87;;;15.50;91.70;;;;;;6226870;28;20472;-68
2021/11/01 16:42:17;;;;;;;16.60;14.77;;;15.50;92.00;;;;;;6229271;28;20464;-68
2021/11/01 16:45:25;;;;;;;16.33;13.23;;;15.50;92.20;;;;;;6229032;28;20943;-67
2021/11/01 16:48:29;;;;;;;15.80;14.20;;;15.40;92.40;;;;;;6227731;28;20817;-68
2021/11/01 16:51:35;;;;;;;18.40;16.50;;;15.40;92.60;;;;;;6236199;28;20487;-69
2021/11/01 16:54:41;;;;;;;16.50;14.67;;;15.40;92.70;;;;;;6253266;28;20474;-69
2021/11/01 16:58:13;;;;;;;15.93;13.97;;;15.40;92.80;;;;;;6251097;28;20521;-67
2021/11/01 17:01:22;;;;;;;25.20;21.77;;;15.40;93.00;;;;;;6250672;28;20471;-70
2021/11/01 17:04:26;;;;;;;21.20;17.33;;;15.40;93.30;;;;;;6252421;28;20471;-69
2021/11/01 17:07:38;;;;;;;19.03;16.30;;;15.40;93.70;;;;;;6252017;28;20475;-69
2021/11/01 17:24:12;;;;;;;20.07;18.03;;;15.40;94.80;;;;;;6262665;28;20470;-68
2021/11/01 17:27:36;;;;;;;16.67;14.93;;;15.40;95.20;;;;;;6254948;28;20463;-68
2021/11/01 17:31:14;;;;;;;16.67;14.87;;;15.20;96.20;;;;;;6250574;28;20478;-66
2021/11/01 17:34:46;;;;;;;18.67;16.87;;;15.10;96.20;;;;;;6251273;28;20843;-67
2021/11/01 17:38:19;;;;;;;21.17;17.63;;;15.10;96.80;;;;;;6252884;28;20473;-67
2021/11/01 18:42:22;;;;;;;19.93;18.07;;;14.30;99.90;;;;;;6265608;28;20470;-66
2021/11/01 18:45:47;;;;;;;18.60;16.80;;;14.30;99.90;;;;;;6260598;28;20459;-65
2021/11/01 18:52:19;;;;;;;18.40;15.47;;;14.40;99.90;;;;;;6268271;28;20474;-64
2021/11/01 18:55:23;;;;;;;14.47;12.83;;;14.40;99.90;;;;;;6275576;28;20557;-63
2021/11/01 18:58:28;;;;;;;16.13;14.43;;;14.40;99.90;;;;;;6275548;28;20469;-64
2021/11/01 19:01:35;;;;;;;15.90;14.40;;;14.40;99.90;;;;;;6252190;28;20483;-65
2021/11/01 19:04:43;;;;;;;16.83;15.13;;;14.40;99.90;;;;;;6252635;28;20475;-63
2021/11/01 19:07:58;;;;;;;16.37;14.87;;;14.40;99.90;;;;;;6251694;28;20475;-62
2021/11/01 20:05:28;;;;;;;19.60;17.57;;;14.00;99.90;;;;;;6250834;28;20471;-65
2021/11/01 21:26:56;;;;;;;24.33;21.77;;;13.70;99.90;;;;;;6254507;28;20523;-64
2021/11/01 21:30:01;;;;;;;23.87;21.03;;;13.60;99.90;;;;;;6254330;28;20459;-65
2021/11/01 21:33:04;;;;;;;23.20;20.67;;;13.60;99.90;;;;;;6278114;28;20466;-66
2021/11/01 21:36:11;;;;;;;24.00;21.07;;;13.60;99.90;;;;;;6279064;28;20469;-66
2021/11/01 21:39:14;;;;;;;26.70;23.93;;;13.60;99.90;;;;;;6278859;28;20473;-66
2021/11/01 21:42:17;;;;;;;24.13;21.63;;;13.60;99.90;;;;;;6278686;28;20458;-66
2021/11/01 21:45:22;;;;;;;25.40;22.87;;;13.60;99.90;;;;;;6278309;28;20474;-64
2021/11/01 21:48:26;;;;;;;24.00;21.53;;;13.60;99.90;;;;;;6278902;28;20461;-63
2021/11/01 21:51:32;;;;;;;25.93;23.23;;;13.60;99.90;;;;;;6278132;28;20473;-64
2021/11/01 21:54:41;;;;;;;22.90;20.63;;;13.60;99.90;;;;;;6274264;28;20473;-65
2021/11/01 21:57:48;;;;;;;25.70;23.17;;;13.60;99.90;;;;;;6271201;28;20494;-66
2021/11/01 22:17:41;;;;;;;26.13;23.43;;;13.40;99.90;;;;;;6251641;28;20834;-65
2021/11/01 22:20:46;;;;;;;27.17;24.40;;;13.40;99.90;;;;;;6272864;28;20489;-65
2021/11/01 22:23:59;;;;;;;26.63;23.80;;;13.40;99.90;;;;;;6267156;28;20935;-66
2021/11/01 22:34:12;;;;;;;24.67;22.00;;;13.40;99.90;;;;;;6252397;28;20564;-64
2021/11/01 22:40:40;;;;;;;25.70;23.00;;;13.20;99.90;;;;;;6252737;28;20806;-64
2021/11/01 22:44:16;;;;;;;26.67;23.80;;;13.30;99.90;;;;;;6255296;28;20477;-64
2021/11/01 22:47:40;;;;;;;31.03;25.30;;;13.30;99.90;;;;;;6276685;28;20808;-65
2021/11/01 22:57:29;;;;;;;23.97;21.47;;;13.30;99.90;;;;;;6235341;28;20474;-66
2021/11/01 23:00:35;;;;;;;25.07;22.27;;;13.20;99.90;;;;;;6251249;28;20945;-66
2021/11/01 23:03:47;;;;;;;23.23;20.83;;;13.20;99.90;;;;;;6227204;28;20534;-65
2021/11/01 23:33:37;;;;;;;19.87;17.97;;;13.10;99.90;;;;;;6250755;28;20971;-64
2021/11/01 23:36:41;;;;;;;18.93;16.97;;;13.10;99.90;;;;;;6246642;28;20486;-64
2021/11/01 23:39:46;;;;;;;20.30;18.10;;;13.10;99.90;;;;;;6226943;28;20472;-64
2021/11/01 23:42:49;;;;;;;20.27;18.40;;;13.10;99.90;;;;;;6248294;28;20458;-64
2021/11/01 23:45:52;;;;;;;20.23;18.23;;;13.10;99.90;;;;;;6247563;28;20478;-64
2021/11/01 23:48:55;;;;;;;21.13;19.03;;;13.10;99.90;;;;;;6250899;28;20955;-64
2021/11/01 23:52:03;;;;;;;20.23;18.03;;;13.00;99.90;;;;;;6243323;28;20480;-64
2021/11/01 23:55:09;;;;;;;20.20;17.97;;;13.00;99.90;;;;;;6250407;28;20471;-65
2021/11/01 23:58:13;;;;;;;24.07;21.77;;;13.00;99.90;;;;;;6249974;28;20470;-65
